createdAt,value
2022-09-11T00:03:11.359Z,46.4
2022-09-11T00:05:13.631Z,50.6
2022-09-11T00:09:44.563Z,50.1
2022-09-11T00:11:46.699Z,62.2
2022-09-11T00:13:52.053Z,62.3
2022-09-11T00:15:54.331Z,61.2
2022-09-11T00:17:56.499Z,54.8
2022-09-11T00:19:58.715Z,61.6
2022-09-11T00:24:03.062Z,53.3
2022-09-11T00:26:05.139Z,57.3
2022-09-11T00:28:10.453Z,54.7
2022-09-11T00:32:14.745Z,57.2
2022-09-11T00:34:16.982Z,62.6
2022-09-11T00:40:23.583Z,62.7
2022-09-11T00:48:35.611Z,65.2
2022-09-11T00:58:49.818Z,70.5
2022-09-11T01:00:52.075Z,92.7
2022-09-11T01:01:54.808Z,71.7
2022-09-11T01:03:56.965Z,76.3
2022-09-11T01:05:59.176Z,76.6
2022-09-11T01:08:01.421Z,84.2
2022-09-11T01:10:06.734Z,88.7
2022-09-11T01:12:08.860Z,79
2022-09-11T01:16:13.286Z,83.2
2022-09-11T01:20:17.659Z,79
2022-09-11T01:22:19.866Z,79
2022-09-11T01:24:25.318Z,97.3
2022-09-11T01:26:27.511Z,93.2
2022-09-11T01:28:29.732Z,89.2
2022-09-11T01:30:31.914Z,86.6
2022-09-11T01:32:34.132Z,90.5
2022-09-11T01:34:36.368Z,92.4
2022-09-11T01:36:38.584Z,84.6
2022-09-11T01:38:44.016Z,96.7
2022-09-11T01:40:46.222Z,99.8
2022-09-11T01:42:48.411Z,94.2
2022-09-11T01:44:50.661Z,90.4
2022-09-11T01:46:52.848Z,105.3
2022-09-11T01:48:55.049Z,97.1
2022-09-11T01:50:57.273Z,86.9
2022-09-11T01:53:02.720Z,122.2
2022-09-11T01:55:04.913Z,97.4
2022-09-11T01:57:07.160Z,100.7
2022-09-11T02:02:14.330Z,96.6
2022-09-11T02:04:16.443Z,89.2
2022-09-11T02:06:21.797Z,95.8
2022-09-11T02:08:23.914Z,92.5
2022-09-11T02:10:26.103Z,104.2
2022-09-11T02:12:28.199Z,87.1
2022-09-11T02:14:30.401Z,86.6
2022-09-11T02:18:34.840Z,93.8
2022-09-11T02:20:40.295Z,103.6
2022-09-11T02:22:42.476Z,103.3
2022-09-11T02:24:44.678Z,101.1
2022-09-11T02:26:46.795Z,99.1
2022-09-11T02:28:48.979Z,102.7
2022-09-11T02:30:51.193Z,115.3
2022-09-11T02:32:53.404Z,97.4
2022-09-11T02:34:58.812Z,119.4
2022-09-11T02:37:00.911Z,107.9
2022-09-11T02:39:03.152Z,90.7
2022-09-11T02:41:05.349Z,107.9
2022-09-11T02:43:07.557Z,112
2022-09-11T02:45:09.754Z,124.4
2022-09-11T02:47:11.948Z,102.8
2022-09-11T02:49:17.280Z,108.5
2022-09-11T02:51:19.405Z,109.3
2022-09-11T02:53:21.613Z,93.9
2022-09-11T02:54:24.316Z,107.5
2022-09-11T02:56:26.535Z,99.1
2022-09-11T02:58:28.717Z,96.8
2022-09-11T03:02:36.366Z,117.8
2022-09-11T03:04:38.579Z,101.5
2022-09-11T03:08:42.986Z,103.7
2022-09-11T03:10:45.200Z,112.6
2022-09-11T03:12:47.409Z,98
2022-09-11T03:16:55.065Z,129.5
2022-09-11T03:18:57.256Z,105
2022-09-11T03:25:03.874Z,107.1
2022-09-11T03:31:13.768Z,111.2
2022-09-11T03:35:18.142Z,101.1
2022-09-11T03:41:24.723Z,101.2
2022-09-11T03:47:34.580Z,131.5
2022-09-11T03:49:36.787Z,135.6
2022-09-11T03:52:05.693Z,135.2
2022-09-11T03:58:15.569Z,122.3
2022-09-11T04:00:17.763Z,123.7
2022-09-11T04:06:24.392Z,120.9
2022-09-11T04:08:26.595Z,125
2022-09-11T04:10:28.802Z,120.6
2022-09-11T04:12:34.255Z,122.4
2022-09-11T04:14:36.463Z,106.9
2022-09-11T04:16:38.737Z,106.3
2022-09-11T04:18:40.860Z,95.6
2022-09-11T04:20:43.041Z,88.3
2022-09-11T04:22:45.286Z,87
2022-09-11T04:24:47.490Z,75.5
2022-09-11T04:26:56.231Z,76.2
2022-09-11T04:28:55.123Z,63.7
2022-09-11T04:30:57.318Z,55.6
2022-09-11T04:32:59.538Z,48
2022-09-11T04:35:01.747Z,53.2
2022-09-11T04:37:03.912Z,43.3
2022-09-11T04:39:06.102Z,46.7
2022-09-11T04:41:11.555Z,45.3
2022-09-11T04:43:13.728Z,38.1
2022-09-11T04:45:16.040Z,51.2
2022-09-11T04:46:18.645Z,48.4
2022-09-11T04:48:20.883Z,48.3
2022-09-11T04:54:30.695Z,72.8
2022-09-11T05:00:38.860Z,56.9
2022-09-11T05:02:40.974Z,48.9
2022-09-11T05:04:43.148Z,53.4
2022-09-11T05:08:50.763Z,60.6
2022-09-11T05:10:52.958Z,58
2022-09-11T05:12:55.136Z,57.2
2022-09-11T05:14:57.318Z,54.8
2022-09-11T05:16:59.488Z,53.1
2022-09-11T05:19:01.678Z,52
2022-09-11T05:21:03.867Z,54.1
2022-09-11T05:25:11.500Z,59.9
2022-09-11T05:27:13.714Z,58.4
2022-09-11T05:31:18.181Z,72.5
2022-09-11T05:33:20.238Z,80.8
2022-09-11T05:35:22.464Z,63.1
2022-09-11T05:37:27.869Z,86.6
2022-09-11T05:39:30.098Z,81
2022-09-11T05:41:32.250Z,80
2022-09-11T05:42:34.979Z,75.4
2022-09-11T05:44:37.184Z,75.8
2022-09-11T05:46:39.339Z,72.4
2022-09-11T05:48:41.559Z,68
2022-09-11T05:50:46.987Z,65.4
2022-09-11T05:52:49.170Z,67.2
2022-09-11T05:54:51.363Z,54.1
2022-09-11T05:58:55.765Z,62.8
2022-09-11T06:00:58.003Z,63.2
2022-09-11T06:03:00.158Z,63
2022-09-11T06:05:05.553Z,65.9
2022-09-11T06:07:07.752Z,55.3
2022-09-11T06:09:09.932Z,58.1
2022-09-11T06:11:12.122Z,63.9
2022-09-11T06:13:14.321Z,53.6
2022-09-11T06:15:36.394Z,55.9
2022-09-11T06:17:18.720Z,53.7
2022-09-11T06:19:24.131Z,59.4
2022-09-11T06:21:26.321Z,62
2022-09-11T06:23:28.501Z,59.3
2022-09-11T06:25:30.688Z,51.4
2022-09-11T06:27:32.878Z,50.5
2022-09-11T06:29:34.981Z,48.9
2022-09-11T06:31:37.181Z,54.6
2022-09-11T06:33:42.723Z,60.2
2022-09-11T06:35:44.830Z,53.5
2022-09-11T06:37:47.002Z,52.7
2022-09-11T06:38:49.724Z,58.2
2022-09-11T06:40:51.919Z,46.3
2022-09-11T06:42:54.104Z,59.7
2022-09-11T06:44:56.301Z,59.9
2022-09-11T06:47:01.571Z,68.4
2022-09-11T06:49:03.637Z,64.9
2022-09-11T06:55:10.167Z,66.6
2022-09-11T06:57:12.380Z,55.8
2022-09-11T06:59:14.541Z,53.3
2022-09-11T07:01:20.109Z,50.4
2022-09-11T07:03:22.208Z,46.5
2022-09-11T07:05:24.425Z,54.2
2022-09-11T07:07:26.778Z,46.9
2022-09-11T07:09:28.773Z,52.3
2022-09-11T07:11:30.850Z,47.9
2022-09-11T07:13:37.170Z,47.8
2022-09-11T07:15:38.411Z,47.3
2022-09-11T07:27:51.364Z,44.7
2022-09-11T07:29:56.717Z,45.6
2022-09-11T07:31:58.879Z,44.1
2022-09-11T07:34:00.983Z,45.2
2022-09-11T07:36:29.680Z,41.9
2022-09-11T07:38:31.792Z,41.1
2022-09-11T07:40:33.906Z,28.5
2022-09-11T07:42:39.206Z,36.1
2022-09-11T07:44:41.277Z,31.6
2022-09-11T07:46:43.395Z,29.4
2022-09-11T07:48:45.530Z,29
2022-09-11T07:50:47.626Z,30.8
2022-09-11T07:52:49.752Z,24.8
2022-09-11T07:54:51.915Z,22.6
2022-09-11T07:56:57.118Z,28.7
2022-09-11T07:58:59.237Z,20.5
2022-09-11T08:01:01.403Z,15
2022-09-11T08:03:03.494Z,20.6
2022-09-11T08:05:05.610Z,18.2
2022-09-11T08:09:09.794Z,14.9
2022-09-11T08:11:15.071Z,15.9
2022-09-11T08:13:17.217Z,15.5
2022-09-11T08:15:19.287Z,14.9
2022-09-11T08:17:21.409Z,15.4
2022-09-11T08:19:23.515Z,17
2022-09-11T08:27:35.149Z,14.8
2022-09-11T08:29:37.249Z,15.9
2022-09-11T08:30:39.897Z,15.9
2022-09-11T08:32:41.993Z,14
2022-09-11T08:34:44.232Z,15
2022-09-11T08:36:46.208Z,14.2
2022-09-11T08:38:51.461Z,11
2022-09-11T08:40:53.592Z,11.5
2022-09-11T08:46:59.900Z,11.8
2022-09-11T08:49:02.046Z,11.1
2022-09-11T08:51:04.132Z,7
2022-09-11T08:53:12.776Z,9.1
2022-09-11T08:55:11.522Z,6
2022-09-11T08:57:13.628Z,11.2
2022-09-11T09:01:20.217Z,9.1
2022-09-11T09:03:19.955Z,11
2022-09-11T09:05:22.069Z,9.8
2022-09-11T09:07:27.332Z,11.5
2022-09-11T09:09:34.303Z,10.7
2022-09-11T09:11:31.560Z,14
2022-09-11T09:13:33.714Z,11.6
2022-09-11T09:15:35.932Z,10.9
2022-09-11T09:17:37.913Z,7.5
2022-09-11T09:19:39.998Z,5.6
2022-09-11T09:21:45.263Z,14.8
2022-09-11T09:23:47.376Z,10.8
2022-09-11T09:25:49.488Z,8.8
2022-09-11T09:28:54.263Z,5.4
2022-09-11T09:30:56.406Z,5.7
2022-09-11T09:32:58.477Z,9.4
2022-09-11T09:35:03.732Z,5.9
2022-09-11T09:39:07.941Z,9.7
2022-09-11T09:41:10.061Z,11.6
2022-09-11T09:43:12.181Z,4.4
2022-09-11T09:49:21.629Z,5.4
2022-09-11T09:53:25.836Z,8.4
2022-09-11T09:55:27.953Z,30.2
2022-09-11T09:59:32.183Z,14.1
2022-09-11T10:03:39.559Z,7.2
2022-09-11T10:05:41.638Z,7.6
2022-09-11T10:07:43.757Z,5.7
2022-09-11T10:09:45.863Z,7.3
2022-09-11T10:11:47.972Z,4.6
2022-09-11T10:13:50.081Z,7.4
2022-09-11T10:15:52.276Z,5.6
2022-09-11T10:17:57.443Z,3.7
2022-09-11T10:19:59.541Z,9.5
2022-09-11T10:22:01.675Z,4.1
2022-09-11T10:27:08.549Z,6.7
2022-09-11T10:29:10.653Z,7.2
2022-09-11T10:33:18.005Z,3.8
2022-09-11T10:37:22.498Z,5.3
2022-09-11T10:39:24.597Z,3
2022-09-11T10:43:28.810Z,3.7
2022-09-11T10:45:34.110Z,5.6
2022-09-11T10:49:38.260Z,4.2
2022-09-11T10:53:43.994Z,6.6
2022-09-11T10:55:46.099Z,6.5
2022-09-11T10:57:48.170Z,4.7
2022-09-11T11:01:55.592Z,2.5
2022-09-11T11:03:57.647Z,7.3
2022-09-11T11:05:59.697Z,3.8
2022-09-11T11:08:01.828Z,7.1
2022-09-11T11:10:03.902Z,5.8
2022-09-11T11:14:11.244Z,4.4
2022-09-11T11:16:13.383Z,6.9
2022-09-11T11:22:46.120Z,3.2
2022-09-11T11:24:48.211Z,4
2022-09-11T11:26:53.476Z,4.1
2022-09-11T11:28:55.595Z,4.1
2022-09-11T11:30:57.708Z,4.1
2022-09-11T11:32:59.740Z,3
2022-09-11T11:35:01.845Z,5.3
2022-09-11T11:39:06.026Z,2.3
2022-09-11T11:41:11.251Z,3.5
2022-09-11T11:43:13.360Z,8.3
2022-09-11T11:51:21.708Z,2.7
2022-09-11T11:53:23.828Z,2.3
2022-09-11T11:55:29.079Z,2.6
2022-09-11T11:57:31.187Z,3.8
2022-09-11T11:59:33.255Z,3.6
2022-09-11T12:01:35.414Z,4.3
2022-09-11T12:03:37.468Z,6.1
2022-09-11T12:05:39.546Z,2.7
2022-09-11T12:07:41.636Z,8.9
2022-09-11T12:09:46.890Z,4.8
2022-09-11T12:11:48.975Z,8.3
2022-09-11T12:13:51.082Z,5.5
2022-09-11T12:14:53.720Z,8.9
2022-09-11T12:16:55.796Z,13.2
2022-09-11T12:18:57.906Z,6.5
2022-09-11T12:20:59.993Z,9.3
2022-09-11T12:23:05.273Z,6.7
2022-09-11T12:25:07.359Z,7.1
2022-09-11T12:27:11.833Z,6.4
2022-09-11T12:29:11.549Z,6.1
2022-09-11T12:35:17.833Z,5.4
2022-09-11T12:37:23.258Z,4.6
2022-09-11T12:39:25.196Z,8.4
2022-09-11T12:41:27.293Z,9.5
2022-09-11T12:43:29.368Z,11.1
2022-09-11T12:45:31.556Z,6.1
2022-09-11T12:47:33.690Z,9.3
2022-09-11T12:49:35.646Z,16.1
2022-09-11T12:51:40.895Z,9.7
2022-09-11T12:53:46.783Z,16.2
2022-09-11T12:55:45.078Z,8.1
2022-09-11T12:59:49.263Z,13.3
2022-09-11T13:05:58.698Z,9.2
2022-09-11T13:10:02.881Z,9.1
2022-09-11T13:11:05.508Z,6.4
2022-09-11T13:13:07.739Z,21.3
2022-09-11T13:15:09.717Z,6.7
2022-09-11T13:17:11.842Z,7.1
2022-09-11T13:19:17.047Z,10.2
2022-09-11T13:21:22.117Z,4.9
2022-09-11T13:23:21.261Z,7.4
2022-09-11T13:25:23.321Z,14
2022-09-11T13:27:25.428Z,9.2
2022-09-11T13:29:27.496Z,5.4
2022-09-11T13:31:29.633Z,8.1
2022-09-11T13:33:34.850Z,10.2
2022-09-11T13:35:36.922Z,10
2022-09-11T13:37:39.027Z,17.3
2022-09-11T13:39:41.139Z,6.9
2022-09-11T13:41:43.178Z,5.7
2022-09-11T13:43:45.260Z,11
2022-09-11T13:47:52.602Z,3.3
2022-09-11T13:49:54.658Z,3
2022-09-11T13:51:56.738Z,3.7
2022-09-11T13:53:58.804Z,4
2022-09-11T13:56:00.840Z,5.6
2022-09-11T13:58:02.930Z,8.7
2022-09-11T14:00:05.136Z,6.2
2022-09-11T14:02:10.269Z,3.7
2022-09-11T14:04:12.290Z,4.6
2022-09-11T14:06:14.376Z,9.7
2022-09-11T14:09:19.056Z,11.7
2022-09-11T14:11:21.056Z,3.8
2022-09-11T14:13:23.157Z,5.5
2022-09-11T14:15:28.325Z,8.8
2022-09-11T14:17:30.359Z,9.4
2022-09-11T14:23:36.485Z,3.7
2022-09-11T14:25:38.511Z,6.1
2022-09-11T14:27:40.523Z,5.2
2022-09-11T14:29:45.749Z,6.9
2022-09-11T14:31:47.833Z,4.6
2022-09-11T14:33:49.805Z,6.4
2022-09-11T14:35:51.819Z,6.9
2022-09-11T14:37:53.867Z,6.3
2022-09-11T14:39:56.067Z,5.3
2022-09-11T14:41:57.927Z,5.9
2022-09-11T14:50:09.237Z,5.9
2022-09-11T14:52:11.297Z,7.2
2022-09-11T14:54:13.347Z,6.6
2022-09-11T14:56:15.415Z,5.1
2022-09-11T14:58:20.623Z,4.5
2022-09-11T15:00:22.670Z,6.8
2022-09-11T15:04:53.355Z,8.2
2022-09-11T15:08:57.485Z,7.2
2022-09-11T15:11:02.730Z,7.1
2022-09-11T15:13:04.778Z,4.4
2022-09-11T15:15:06.864Z,5.1
2022-09-11T15:17:08.967Z,8.1
2022-09-11T15:19:10.981Z,8.5
2022-09-11T15:21:13.091Z,5.1
2022-09-11T15:23:15.133Z,3.9
2022-09-11T15:25:20.357Z,6.5
2022-09-11T15:27:22.460Z,8.2
2022-09-11T15:29:29.430Z,5.7
2022-09-11T15:31:26.573Z,4.4
2022-09-11T15:33:28.596Z,4.6
2022-09-11T15:35:32.872Z,12.8
2022-09-11T15:37:32.750Z,10.1
2022-09-11T15:39:38.068Z,10.7
2022-09-11T15:41:40.080Z,8
2022-09-11T15:43:42.162Z,9.4
2022-09-11T15:45:44.236Z,7.8
2022-09-11T15:49:48.320Z,9.2
2022-09-11T15:51:50.374Z,9.3
2022-09-11T15:53:55.614Z,22.7
2022-09-11T15:55:57.694Z,4.3
2022-09-11T15:57:59.786Z,5.8
2022-09-11T15:59:02.403Z,7.6
2022-09-11T16:01:04.514Z,9.5
2022-09-11T16:03:06.550Z,8.5
2022-09-11T16:05:08.623Z,8
2022-09-11T16:07:13.857Z,6.4
2022-09-11T16:11:17.992Z,4.5
2022-09-11T16:13:20.172Z,7.1
2022-09-11T16:15:22.145Z,6.6
2022-09-11T16:21:31.559Z,6.2
2022-09-11T16:27:37.791Z,8.5
2022-09-11T16:31:42.018Z,7
2022-09-11T16:33:44.275Z,11.9
2022-09-11T16:35:49.356Z,7.9
2022-09-11T16:37:51.420Z,6.2
2022-09-11T16:39:53.580Z,12.5
2022-09-11T16:41:55.588Z,10.8
2022-09-11T16:43:59.240Z,9.2
2022-09-11T16:46:01.358Z,8.9
2022-09-11T16:48:03.404Z,8
2022-09-11T16:50:08.868Z,9.8
2022-09-11T16:52:10.765Z,18.7
2022-09-11T16:54:12.870Z,6.4
2022-09-11T16:55:15.510Z,6.8
2022-09-11T16:57:17.605Z,8.7
2022-09-11T16:59:19.712Z,12.8
2022-09-11T17:01:21.829Z,13
2022-09-11T17:03:27.060Z,7.1
2022-09-11T17:05:29.158Z,6.9
2022-09-11T17:07:31.304Z,5.3
2022-09-11T17:09:33.439Z,6
2022-09-11T17:11:35.477Z,5.2
2022-09-11T17:13:37.584Z,12.9
2022-09-11T17:15:39.787Z,6.8
2022-09-11T17:17:44.976Z,9.4
2022-09-11T17:19:47.049Z,6.1
2022-09-11T17:21:49.168Z,8
2022-09-11T17:23:51.274Z,6.3
2022-09-11T17:25:53.375Z,9.9
2022-09-11T17:27:55.492Z,7.6
2022-09-11T17:29:57.665Z,4.9
2022-09-11T17:32:26.316Z,8.5
2022-09-11T17:34:04.991Z,6.2
2022-09-11T17:36:07.121Z,7.7
2022-09-11T17:38:09.199Z,14.7
2022-09-11T17:40:11.390Z,9.7
2022-09-11T17:42:13.683Z,8.5
2022-09-11T17:44:15.541Z,10.6
2022-09-11T17:46:20.848Z,9.1
2022-09-11T17:48:22.937Z,15.4
2022-09-11T17:50:25.036Z,8.4
2022-09-11T17:51:27.670Z,10.4
2022-09-11T17:53:29.792Z,12.9
2022-09-11T17:55:31.899Z,9.5
2022-09-11T17:57:34.004Z,6.2
2022-09-11T17:59:39.265Z,7.6
2022-09-11T18:01:41.460Z,9.3
2022-09-11T18:03:43.625Z,7.1
2022-09-11T18:05:45.619Z,9.6
2022-09-11T18:07:47.726Z,12.8
2022-09-11T18:09:54.084Z,6.9
2022-09-11T18:11:51.945Z,11.7
2022-09-11T18:13:57.216Z,12.5
2022-09-11T18:15:59.361Z,8.5
2022-09-11T18:18:01.463Z,14
2022-09-11T18:20:03.583Z,10.3
2022-09-11T18:22:05.706Z,15.4
2022-09-11T18:24:09.808Z,7.9
2022-09-11T18:26:09.942Z,11.4
2022-09-11T18:28:15.225Z,9.6
2022-09-11T18:30:17.344Z,10.5
2022-09-11T18:32:20.085Z,9
2022-09-11T18:38:27.913Z,12.2
2022-09-11T18:40:27.958Z,23.5
2022-09-11T18:42:33.220Z,10
2022-09-11T18:44:35.350Z,13.9
2022-09-11T18:46:37.593Z,8.5
2022-09-11T18:49:06.134Z,11.3
2022-09-11T18:51:08.260Z,10.8
2022-09-11T18:53:10.380Z,10.9
2022-09-11T18:55:15.652Z,9.8
2022-09-11T18:57:17.769Z,13.1
2022-09-11T18:59:19.912Z,15.2
2022-09-11T19:01:22.076Z,20.4
2022-09-11T19:05:26.290Z,7.8
2022-09-11T19:07:28.386Z,9.9
2022-09-11T19:09:33.664Z,10.6
2022-09-11T19:11:35.790Z,9.1
2022-09-11T19:13:37.897Z,16.7
2022-09-11T19:15:40.048Z,15.8
2022-09-11T19:17:42.213Z,12.6
2022-09-11T19:19:44.266Z,18
2022-09-11T19:21:46.409Z,12.4
2022-09-11T19:23:51.668Z,10.6
2022-09-11T19:29:58.060Z,15.5
2022-09-11T19:32:00.293Z,17.3
2022-09-11T19:34:02.284Z,21.7
2022-09-11T19:36:04.433Z,20.8
2022-09-11T19:38:09.674Z,16.5
2022-09-11T19:40:11.859Z,18.3
2022-09-11T19:42:13.932Z,89.3
2022-09-11T19:43:16.557Z,24.3
2022-09-11T19:45:18.686Z,21
2022-09-11T19:47:20.821Z,11.9
2022-09-11T19:51:28.216Z,12.4
2022-09-11T19:53:30.326Z,14.5
2022-09-11T20:01:38.835Z,15.7
2022-09-11T20:03:41.034Z,18
2022-09-11T20:05:46.179Z,27.2
2022-09-11T20:07:48.356Z,15.3
2022-09-11T20:09:50.490Z,14.1
2022-09-11T20:11:52.616Z,14
2022-09-11T20:13:54.730Z,15.5
2022-09-11T20:15:56.922Z,12.8
2022-09-11T20:18:00.429Z,13.8
2022-09-11T20:24:08.515Z,18.7
2022-09-11T20:26:16.300Z,27.4
2022-09-11T20:28:13.495Z,21.3
2022-09-11T20:30:15.617Z,19.2
2022-09-11T20:34:22.990Z,21.1
2022-09-11T20:36:25.109Z,19.9
2022-09-11T20:41:31.988Z,15.5
2022-09-11T20:43:34.166Z,17.7
2022-09-11T20:45:36.219Z,16.3
2022-09-11T20:47:41.487Z,16.9
2022-09-11T20:49:43.594Z,25.8
2022-09-11T20:51:45.727Z,18.1
2022-09-11T20:53:47.842Z,17.7
2022-09-11T20:55:49.975Z,20.2
2022-09-11T20:57:52.113Z,17.9
2022-09-11T20:59:54.213Z,16.3
2022-09-11T21:02:00.611Z,20.9
2022-09-11T21:04:01.582Z,24
2022-09-11T21:06:03.698Z,21.3
2022-09-11T21:08:05.811Z,21.8
2022-09-11T21:10:07.955Z,18.8
2022-09-11T21:14:12.189Z,25.5
2022-09-11T21:16:17.505Z,18.8
2022-09-11T21:18:19.591Z,24
2022-09-11T21:22:23.853Z,23
2022-09-11T21:26:28.083Z,21.1
2022-09-11T21:28:30.180Z,20.6
2022-09-11T21:30:35.452Z,24.4
2022-09-11T21:32:37.561Z,17.4
2022-09-11T21:34:39.687Z,18.1
2022-09-11T21:35:42.320Z,19.7
2022-09-11T21:37:44.435Z,23.3
2022-09-11T21:39:46.637Z,18.1
2022-09-11T21:41:48.671Z,18.9
2022-09-11T21:43:53.919Z,20.2
2022-09-11T21:45:56.044Z,17
2022-09-11T21:47:58.171Z,18.9
2022-09-11T21:50:00.272Z,19.1
2022-09-11T21:52:02.390Z,24.6
2022-09-11T21:54:04.493Z,18.9
2022-09-11T21:56:06.634Z,26.1
2022-09-11T21:58:11.898Z,20.4
2022-09-11T22:00:14.011Z,19.6
2022-09-11T22:02:16.152Z,21
2022-09-11T22:04:18.250Z,17.7
2022-09-11T22:06:20.369Z,15.4
2022-09-11T22:08:22.479Z,16.8
2022-09-11T22:10:24.593Z,21.6
2022-09-11T22:12:29.879Z,21.2
2022-09-11T22:14:31.979Z,18.1
2022-09-11T22:16:34.165Z,15.2
2022-09-11T22:18:36.204Z,19.9
2022-09-11T22:20:38.322Z,23.2
2022-09-11T22:22:40.439Z,18.5
2022-09-11T22:24:42.554Z,25.4
2022-09-11T22:26:47.834Z,24.7
2022-09-11T22:28:49.976Z,21.9
2022-09-11T22:30:52.096Z,17.3
2022-09-11T22:35:24.687Z,14.9
2022-09-11T22:37:26.756Z,19.4
2022-09-11T22:39:32.130Z,17.2
2022-09-11T22:41:34.280Z,13
2022-09-11T22:43:36.360Z,16.6
2022-09-11T22:45:38.592Z,17.3
2022-09-11T22:47:40.710Z,17.1
2022-09-11T22:49:42.916Z,16.8
2022-09-11T22:51:45.007Z,17.7
2022-09-11T22:53:50.388Z,19.2
2022-09-11T22:55:52.480Z,16
2022-09-11T22:57:54.716Z,18.7
2022-09-11T22:59:56.929Z,17.2
2022-09-11T23:06:03.564Z,19.6
2022-09-11T23:08:08.836Z,32.5
2022-09-11T23:10:11.111Z,23.6
2022-09-11T23:12:13.255Z,21.3
2022-09-11T23:14:15.478Z,16.4
2022-09-11T23:16:17.735Z,17.4
2022-09-11T23:20:22.122Z,18.3
2022-09-11T23:22:27.491Z,16
2022-09-11T23:26:31.875Z,22.8
2022-09-11T23:27:34.613Z,20
2022-09-11T23:29:36.830Z,18.3
2022-09-11T23:31:39.068Z,19.2
2022-09-11T23:33:41.302Z,22.1
2022-09-11T23:35:46.710Z,18.4
2022-09-11T23:37:48.951Z,17.8
2022-09-11T23:39:51.097Z,13.4
2022-09-11T23:41:53.260Z,14.8
2022-09-11T23:43:55.424Z,17.1
2022-09-11T23:45:57.666Z,22.7
2022-09-11T23:47:59.847Z,14.4
2022-09-11T23:50:05.205Z,17
2022-09-11T23:52:07.309Z,18.1
2022-09-11T23:54:09.509Z,15.3
2022-09-11T23:56:11.742Z,16.4
